sensor_id;sensor_type;location;lat;lon;timestamp;temperature;humidity
22950;DHT22;11641;51.018;4.474;2023-02-19T00:01:31;11.50;99.90
22950;DHT22;11641;51.018;4.474;2023-02-19T00:04:05;11.50;99.90
22950;DHT22;11641;51.018;4.474;2023-02-19T00:06:33;11.50;99.90
22950;DHT22;11641;51.018;4.474;2023-02-19T00:08:59;11.50;99.90
22950;DHT22;11641;51.018;4.474;2023-02-19T00:11:28;11.50;99.90
22950;DHT22;11641;51.018;4.474;2023-02-19T00:13:55;11.50;99.90
22950;DHT22;11641;51.018;4.474;2023-02-19T00:16:35;11.40;99.90
22950;DHT22;11641;51.018;4.474;2023-02-19T00:19:03;11.40;99.90
22950;DHT22;11641;51.018;4.474;2023-02-19T00:21:29;11.40;99.90
22950;DHT22;11641;51.018;4.474;2023-02-19T00:24:00;11.40;99.90
22950;DHT22;11641;51.018;4.474;2023-02-19T00:26:27;11.40;99.90
22950;DHT22;11641;51.018;4.474;2023-02-19T00:28:53;11.50;99.90
22950;DHT22;11641;51.018;4.474;2023-02-19T00:31:33;11.60;99.90
22950;DHT22;11641;51.018;4.474;2023-02-19T00:34:01;11.50;99.90
22950;DHT22;11641;51.018;4.474;2023-02-19T00:36:28;11.50;99.90
22950;DHT22;11641;51.018;4.474;2023-02-19T00:38:55;11.40;99.90
22950;DHT22;11641;51.018;4.474;2023-02-19T00:41:22;11.40;99.90
22950;DHT22;11641;51.018;4.474;2023-02-19T00:43:56;11.40;99.90
22950;DHT22;11641;51.018;4.474;2023-02-19T00:46:27;11.50;99.90
22950;DHT22;11641;51.018;4.474;2023-02-19T00:48:54;11.60;99.90
22950;DHT22;11641;51.018;4.474;2023-02-19T00:51:22;11.50;99.90
22950;DHT22;11641;51.018;4.474;2023-02-19T00:53:48;11.50;99.90
22950;DHT22;11641;51.018;4.474;2023-02-19T00:56:15;11.60;99.90
22950;DHT22;11641;51.018;4.474;2023-02-19T00:58:41;11.70;99.90
22950;DHT22;11641;51.018;4.474;2023-02-19T01:01:07;11.70;99.90
22950;DHT22;11641;51.018;4.474;2023-02-19T01:03:36;11.60;99.90
22950;DHT22;11641;51.018;4.474;2023-02-19T01:06:03;11.60;99.90
22950;DHT22;11641;51.018;4.474;2023-02-19T01:08:29;11.60;99.90
22950;DHT22;11641;51.018;4.474;2023-02-19T01:10:58;11.60;99.90
22950;DHT22;11641;51.018;4.474;2023-02-19T01:13:24;11.70;99.90
22950;DHT22;11641;51.018;4.474;2023-02-19T01:15:50;11.70;99.90
22950;DHT22;11641;51.018;4.474;2023-02-19T01:18:16;11.60;99.90
22950;DHT22;11641;51.018;4.474;2023-02-19T01:20:43;11.60;99.90
22950;DHT22;11641;51.018;4.474;2023-02-19T01:23:11;11.60;99.90
22950;DHT22;11641;51.018;4.474;2023-02-19T01:25:40;11.50;99.90
22950;DHT22;11641;51.018;4.474;2023-02-19T01:28:10;11.50;99.90
22950;DHT22;11641;51.018;4.474;2023-02-19T01:30:39;11.50;99.90
22950;DHT22;11641;51.018;4.474;2023-02-19T01:33:06;11.50;99.90
22950;DHT22;11641;51.018;4.474;2023-02-19T01:35:33;11.50;99.90
22950;DHT22;11641;51.018;4.474;2023-02-19T01:37:59;11.40;99.90
22950;DHT22;11641;51.018;4.474;2023-02-19T01:40:25;11.40;99.90
22950;DHT22;11641;51.018;4.474;2023-02-19T01:42:51;11.50;99.90
22950;DHT22;11641;51.018;4.474;2023-02-19T01:48:13;11.40;99.90
22950;DHT22;11641;51.018;4.474;2023-02-19T01:51:08;11.40;99.90
22950;DHT22;11641;51.018;4.474;2023-02-19T01:53:42;11.40;99.90
22950;DHT22;11641;51.018;4.474;2023-02-19T01:56:08;11.50;99.90
22950;DHT22;11641;51.018;4.474;2023-02-19T01:58:38;11.50;99.90
22950;DHT22;11641;51.018;4.474;2023-02-19T02:01:06;11.40;99.90
22950;DHT22;11641;51.018;4.474;2023-02-19T02:03:35;11.30;99.90
22950;DHT22;11641;51.018;4.474;2023-02-19T02:06:25;11.30;99.90
22950;DHT22;11641;51.018;4.474;2023-02-19T02:08:55;11.20;99.90
22950;DHT22;11641;51.018;4.474;2023-02-19T02:11:58;11.40;99.90
22950;DHT22;11641;51.018;4.474;2023-02-19T02:14:27;11.40;99.90
22950;DHT22;11641;51.018;4.474;2023-02-19T02:25:20;11.40;99.90
22950;DHT22;11641;51.018;4.474;2023-02-19T02:30:47;11.40;99.90
22950;DHT22;11641;51.018;4.474;2023-02-19T02:33:35;11.40;99.90
22950;DHT22;11641;51.018;4.474;2023-02-19T02:36:11;11.20;99.90
22950;DHT22;11641;51.018;4.474;2023-02-19T02:38:40;11.30;99.90
22950;DHT22;11641;51.018;4.474;2023-02-19T02:41:07;11.30;99.90
22950;DHT22;11641;51.018;4.474;2023-02-19T02:43:33;11.30;99.90
22950;DHT22;11641;51.018;4.474;2023-02-19T02:45:59;11.30;99.90
22950;DHT22;11641;51.018;4.474;2023-02-19T02:48:55;11.30;99.90
22950;DHT22;11641;51.018;4.474;2023-02-19T02:51:21;11.20;99.90
22950;DHT22;11641;51.018;4.474;2023-02-19T02:56:42;11.30;99.90
22950;DHT22;11641;51.018;4.474;2023-02-19T02:59:10;11.40;99.90
22950;DHT22;11641;51.018;4.474;2023-02-19T03:04:34;11.40;99.90
22950;DHT22;11641;51.018;4.474;2023-02-19T03:07:05;11.30;99.90
22950;DHT22;11641;51.018;4.474;2023-02-19T03:09:36;11.40;99.90
22950;DHT22;11641;51.018;4.474;2023-02-19T03:12:09;11.30;99.90
22950;DHT22;11641;51.018;4.474;2023-02-19T03:14:59;11.20;99.90
22950;DHT22;11641;51.018;4.474;2023-02-19T03:17:49;11.20;99.90
22950;DHT22;11641;51.018;4.474;2023-02-19T03:20:38;11.30;99.90
22950;DHT22;11641;51.018;4.474;2023-02-19T03:23:11;11.30;99.90
22950;DHT22;11641;51.018;4.474;2023-02-19T03:25:38;11.30;99.90
22950;DHT22;11641;51.018;4.474;2023-02-19T03:28:25;11.30;99.90
22950;DHT22;11641;51.018;4.474;2023-02-19T03:31:14;11.40;99.90
22950;DHT22;11641;51.018;4.474;2023-02-19T03:33:42;11.30;99.90
22950;DHT22;11641;51.018;4.474;2023-02-19T03:36:11;11.30;99.90
22950;DHT22;11641;51.018;4.474;2023-02-19T03:39:04;11.20;99.90
22950;DHT22;11641;51.018;4.474;2023-02-19T03:41:52;11.20;99.90
22950;DHT22;11641;51.018;4.474;2023-02-19T03:44:41;11.30;99.90
22950;DHT22;11641;51.018;4.474;2023-02-19T03:47:24;11.20;99.90
22950;DHT22;11641;51.018;4.474;2023-02-19T03:50:06;11.20;99.90
22950;DHT22;11641;51.018;4.474;2023-02-19T03:53:08;11.10;99.90
22950;DHT22;11641;51.018;4.474;2023-02-19T04:00:43;11.40;99.90
22950;DHT22;11641;51.018;4.474;2023-02-19T04:03:28;11.50;99.90
22950;DHT22;11641;51.018;4.474;2023-02-19T04:06:01;11.50;99.90
22950;DHT22;11641;51.018;4.474;2023-02-19T04:08:29;11.50;99.90
22950;DHT22;11641;51.018;4.474;2023-02-19T04:10:57;11.40;99.90
22950;DHT22;11641;51.018;4.474;2023-02-19T04:13:42;11.30;99.90
22950;DHT22;11641;51.018;4.474;2023-02-19T04:16:12;11.30;99.90
22950;DHT22;11641;51.018;4.474;2023-02-19T04:18:43;11.40;99.90
22950;DHT22;11641;51.018;4.474;2023-02-19T04:21:09;11.30;99.90
22950;DHT22;11641;51.018;4.474;2023-02-19T04:23:44;11.30;99.90
22950;DHT22;11641;51.018;4.474;2023-02-19T04:26:11;11.30;99.90
22950;DHT22;11641;51.018;4.474;2023-02-19T04:28:38;11.30;99.90
22950;DHT22;11641;51.018;4.474;2023-02-19T04:31:04;11.20;99.90
22950;DHT22;11641;51.018;4.474;2023-02-19T04:33:30;11.30;99.90
22950;DHT22;11641;51.018;4.474;2023-02-19T04:35:56;11.20;99.90
22950;DHT22;11641;51.018;4.474;2023-02-19T04:38:21;11.10;99.90
22950;DHT22;11641;51.018;4.474;2023-02-19T04:40:47;11.20;99.90
22950;DHT22;11641;51.018;4.474;2023-02-19T04:43:16;11.20;99.90
22950;DHT22;11641;51.018;4.474;2023-02-19T04:45:41;11.30;99.90
22950;DHT22;11641;51.018;4.474;2023-02-19T04:48:10;11.30;99.90
22950;DHT22;11641;51.018;4.474;2023-02-19T04:50:39;11.40;99.90
22950;DHT22;11641;51.018;4.474;2023-02-19T04:53:06;11.30;99.90
22950;DHT22;11641;51.018;4.474;2023-02-19T04:55:38;11.40;99.90
22950;DHT22;11641;51.018;4.474;2023-02-19T04:58:04;11.40;99.90
22950;DHT22;11641;51.018;4.474;2023-02-19T05:00:30;11.40;99.90
22950;DHT22;11641;51.018;4.474;2023-02-19T05:02:56;11.50;99.90
22950;DHT22;11641;51.018;4.474;2023-02-19T05:05:21;11.40;99.90
22950;DHT22;11641;51.018;4.474;2023-02-19T05:07:47;11.30;99.90
22950;DHT22;11641;51.018;4.474;2023-02-19T05:10:17;11.10;99.90
22950;DHT22;11641;51.018;4.474;2023-02-19T05:12:43;11.10;99.90
22950;DHT22;11641;51.018;4.474;2023-02-19T05:15:08;11.20;99.90
22950;DHT22;11641;51.018;4.474;2023-02-19T05:17:34;11.10;99.90
22950;DHT22;11641;51.018;4.474;2023-02-19T05:20:00;11.10;99.90
22950;DHT22;11641;51.018;4.474;2023-02-19T05:22:28;11.20;99.90
22950;DHT22;11641;51.018;4.474;2023-02-19T05:24:54;11.20;99.90
22950;DHT22;11641;51.018;4.474;2023-02-19T05:27:20;11.10;99.90
22950;DHT22;11641;51.018;4.474;2023-02-19T05:29:50;11.20;99.90
22950;DHT22;11641;51.018;4.474;2023-02-19T05:32:15;11.20;99.90
22950;DHT22;11641;51.018;4.474;2023-02-19T05:34:44;11.10;99.90
22950;DHT22;11641;51.018;4.474;2023-02-19T05:37:10;11.10;99.90
22950;DHT22;11641;51.018;4.474;2023-02-19T05:39:35;11.20;99.90
22950;DHT22;11641;51.018;4.474;2023-02-19T05:42:01;11.20;99.90
22950;DHT22;11641;51.018;4.474;2023-02-19T05:44:27;11.20;99.90
22950;DHT22;11641;51.018;4.474;2023-02-19T05:46:53;11.30;99.90
22950;DHT22;11641;51.018;4.474;2023-02-19T05:49:18;11.10;99.90
22950;DHT22;11641;51.018;4.474;2023-02-19T05:51:44;11.20;99.90
22950;DHT22;11641;51.018;4.474;2023-02-19T05:54:10;11.20;99.90
22950;DHT22;11641;51.018;4.474;2023-02-19T05:56:41;11.10;99.90
22950;DHT22;11641;51.018;4.474;2023-02-19T05:59:19;11.10;99.90
22950;DHT22;11641;51.018;4.474;2023-02-19T06:01:49;11.10;99.90
22950;DHT22;11641;51.018;4.474;2023-02-19T06:04:15;11.10;99.90
22950;DHT22;11641;51.018;4.474;2023-02-19T06:06:44;11.20;99.90
22950;DHT22;11641;51.018;4.474;2023-02-19T06:09:10;11.20;99.90
22950;DHT22;11641;51.018;4.474;2023-02-19T06:11:36;11.10;99.90
22950;DHT22;11641;51.018;4.474;2023-02-19T06:14:03;11.00;99.90
22950;DHT22;11641;51.018;4.474;2023-02-19T06:16:29;11.00;99.90
22950;DHT22;11641;51.018;4.474;2023-02-19T06:18:56;11.10;99.90
22950;DHT22;11641;51.018;4.474;2023-02-19T06:21:25;11.10;99.90
22950;DHT22;11641;51.018;4.474;2023-02-19T06:23:50;11.30;99.90
22950;DHT22;11641;51.018;4.474;2023-02-19T06:26:21;11.20;99.90
22950;DHT22;11641;51.018;4.474;2023-02-19T06:28:52;11.30;99.90
22950;DHT22;11641;51.018;4.474;2023-02-19T06:31:20;11.10;99.90
22950;DHT22;11641;51.018;4.474;2023-02-19T06:33:45;11.20;99.90
22950;DHT22;11641;51.018;4.474;2023-02-19T06:36:14;11.20;99.90
22950;DHT22;11641;51.018;4.474;2023-02-19T06:38:40;11.20;99.90
22950;DHT22;11641;51.018;4.474;2023-02-19T06:41:07;11.10;99.90
22950;DHT22;11641;51.018;4.474;2023-02-19T06:43:33;11.10;99.90
22950;DHT22;11641;51.018;4.474;2023-02-19T06:46:00;11.10;99.90
22950;DHT22;11641;51.018;4.474;2023-02-19T06:48:27;11.20;99.90
22950;DHT22;11641;51.018;4.474;2023-02-19T06:50:53;11.20;99.90
22950;DHT22;11641;51.018;4.474;2023-02-19T06:53:19;11.10;99.90
22950;DHT22;11641;51.018;4.474;2023-02-19T06:55:55;11.10;99.90
22950;DHT22;11641;51.018;4.474;2023-02-19T06:58:21;11.10;99.90
22950;DHT22;11641;51.018;4.474;2023-02-19T07:00:46;11.10;99.90
22950;DHT22;11641;51.018;4.474;2023-02-19T07:03:12;11.20;99.90
22950;DHT22;11641;51.018;4.474;2023-02-19T07:05:38;11.20;99.90
22950;DHT22;11641;51.018;4.474;2023-02-19T07:08:04;11.20;99.90
22950;DHT22;11641;51.018;4.474;2023-02-19T07:10:29;11.20;99.90
22950;DHT22;11641;51.018;4.474;2023-02-19T07:12:55;11.20;99.90
22950;DHT22;11641;51.018;4.474;2023-02-19T07:15:21;11.10;99.90
22950;DHT22;11641;51.018;4.474;2023-02-19T07:17:47;11.10;99.90
22950;DHT22;11641;51.018;4.474;2023-02-19T07:20:13;11.10;99.90
22950;DHT22;11641;51.018;4.474;2023-02-19T07:22:38;11.30;99.90
22950;DHT22;11641;51.018;4.474;2023-02-19T07:25:04;11.40;99.90
22950;DHT22;11641;51.018;4.474;2023-02-19T07:27:30;11.60;99.90
22950;DHT22;11641;51.018;4.474;2023-02-19T07:29:56;11.70;99.90
22950;DHT22;11641;51.018;4.474;2023-02-19T07:32:23;11.60;99.90
22950;DHT22;11641;51.018;4.474;2023-02-19T07:34:49;11.60;99.90
22950;DHT22;11641;51.018;4.474;2023-02-19T07:37:15;11.60;99.90
22950;DHT22;11641;51.018;4.474;2023-02-19T07:39:40;11.60;99.90
22950;DHT22;11641;51.018;4.474;2023-02-19T07:42:06;11.60;99.90
22950;DHT22;11641;51.018;4.474;2023-02-19T07:44:32;11.40;99.90
22950;DHT22;11641;51.018;4.474;2023-02-19T07:46:58;11.40;99.90
22950;DHT22;11641;51.018;4.474;2023-02-19T07:49:24;11.30;99.90
22950;DHT22;11641;51.018;4.474;2023-02-19T07:51:50;11.30;99.90
22950;DHT22;11641;51.018;4.474;2023-02-19T07:54:18;11.30;99.90
22950;DHT22;11641;51.018;4.474;2023-02-19T07:56:44;11.30;99.90
22950;DHT22;11641;51.018;4.474;2023-02-19T07:59:09;11.20;99.90
22950;DHT22;11641;51.018;4.474;2023-02-19T08:01:36;11.10;99.90
22950;DHT22;11641;51.018;4.474;2023-02-19T08:04:20;11.20;99.90
22950;DHT22;11641;51.018;4.474;2023-02-19T08:06:46;11.10;99.90
22950;DHT22;11641;51.018;4.474;2023-02-19T08:09:18;11.20;99.90
22950;DHT22;11641;51.018;4.474;2023-02-19T08:11:44;11.20;99.90
22950;DHT22;11641;51.018;4.474;2023-02-19T08:14:28;11.00;99.90
22950;DHT22;11641;51.018;4.474;2023-02-19T08:16:54;11.00;99.90
22950;DHT22;11641;51.018;4.474;2023-02-19T08:19:21;11.10;99.90
22950;DHT22;11641;51.018;4.474;2023-02-19T08:21:47;11.30;99.90
22950;DHT22;11641;51.018;4.474;2023-02-19T08:24:14;11.30;99.90
22950;DHT22;11641;51.018;4.474;2023-02-19T08:26:40;11.40;99.90
22950;DHT22;11641;51.018;4.474;2023-02-19T08:29:06;11.50;99.90
22950;DHT22;11641;51.018;4.474;2023-02-19T08:31:32;11.40;99.90
22950;DHT22;11641;51.018;4.474;2023-02-19T08:33:58;11.50;99.90
22950;DHT22;11641;51.018;4.474;2023-02-19T08:36:24;11.50;99.90
22950;DHT22;11641;51.018;4.474;2023-02-19T08:38:50;11.40;99.90
22950;DHT22;11641;51.018;4.474;2023-02-19T08:41:19;11.40;99.90
22950;DHT22;11641;51.018;4.474;2023-02-19T08:43:48;11.50;99.90
22950;DHT22;11641;51.018;4.474;2023-02-19T08:46:14;11.60;99.90
22950;DHT22;11641;51.018;4.474;2023-02-19T08:48:42;11.50;99.90
22950;DHT22;11641;51.018;4.474;2023-02-19T08:51:10;11.50;99.90
22950;DHT22;11641;51.018;4.474;2023-02-19T08:53:37;11.40;99.90
22950;DHT22;11641;51.018;4.474;2023-02-19T08:56:14;11.30;99.90
22950;DHT22;11641;51.018;4.474;2023-02-19T08:58:40;11.40;99.90
22950;DHT22;11641;51.018;4.474;2023-02-19T09:01:11;11.40;99.90
22950;DHT22;11641;51.018;4.474;2023-02-19T09:03:38;11.40;99.90
22950;DHT22;11641;51.018;4.474;2023-02-19T09:06:04;11.50;99.90
22950;DHT22;11641;51.018;4.474;2023-02-19T09:08:29;11.70;99.90
22950;DHT22;11641;51.018;4.474;2023-02-19T09:11:03;11.80;99.90
22950;DHT22;11641;51.018;4.474;2023-02-19T09:13:31;11.90;99.90
22950;DHT22;11641;51.018;4.474;2023-02-19T09:15:57;12.00;99.90
22950;DHT22;11641;51.018;4.474;2023-02-19T09:18:24;12.00;99.90
22950;DHT22;11641;51.018;4.474;2023-02-19T09:20:50;11.90;99.90
22950;DHT22;11641;51.018;4.474;2023-02-19T09:23:15;11.80;99.90
22950;DHT22;11641;51.018;4.474;2023-02-19T09:25:41;11.80;99.90
22950;DHT22;11641;51.018;4.474;2023-02-19T09:28:07;11.70;99.90
22950;DHT22;11641;51.018;4.474;2023-02-19T09:30:33;11.80;99.90
22950;DHT22;11641;51.018;4.474;2023-02-19T09:32:59;11.90;99.90
22950;DHT22;11641;51.018;4.474;2023-02-19T09:35:25;11.90;99.90
22950;DHT22;11641;51.018;4.474;2023-02-19T09:37:50;12.00;99.90
22950;DHT22;11641;51.018;4.474;2023-02-19T09:40:19;12.00;99.90
22950;DHT22;11641;51.018;4.474;2023-02-19T09:42:48;12.00;99.90
22950;DHT22;11641;51.018;4.474;2023-02-19T09:45:22;11.80;99.90
22950;DHT22;11641;51.018;4.474;2023-02-19T09:47:52;11.90;99.90
22950;DHT22;11641;51.018;4.474;2023-02-19T09:50:21;11.90;99.90
22950;DHT22;11641;51.018;4.474;2023-02-19T09:52:51;11.80;99.90
22950;DHT22;11641;51.018;4.474;2023-02-19T09:57:58;11.60;99.90
22950;DHT22;11641;51.018;4.474;2023-02-19T10:00:26;11.50;99.90
22950;DHT22;11641;51.018;4.474;2023-02-19T10:03:03;11.40;99.90
22950;DHT22;11641;51.018;4.474;2023-02-19T10:05:31;11.40;99.90
22950;DHT22;11641;51.018;4.474;2023-02-19T10:07:57;11.20;99.90
22950;DHT22;11641;51.018;4.474;2023-02-19T10:10:32;11.30;99.90
22950;DHT22;11641;51.018;4.474;2023-02-19T10:13:10;11.30;99.90
22950;DHT22;11641;51.018;4.474;2023-02-19T10:15:44;11.60;99.90
22950;DHT22;11641;51.018;4.474;2023-02-19T10:18:11;11.60;99.90
22950;DHT22;11641;51.018;4.474;2023-02-19T10:20:37;11.80;99.90
22950;DHT22;11641;51.018;4.474;2023-02-19T10:23:09;12.10;99.90
22950;DHT22;11641;51.018;4.474;2023-02-19T10:25:46;12.40;99.90
22950;DHT22;11641;51.018;4.474;2023-02-19T10:28:15;12.60;99.90
22950;DHT22;11641;51.018;4.474;2023-02-19T10:30:42;12.50;99.90
22950;DHT22;11641;51.018;4.474;2023-02-19T10:33:13;12.50;99.90
22950;DHT22;11641;51.018;4.474;2023-02-19T10:35:58;12.70;99.90
22950;DHT22;11641;51.018;4.474;2023-02-19T10:38:37;12.90;99.90
22950;DHT22;11641;51.018;4.474;2023-02-19T10:41:15;13.00;99.90
22950;DHT22;11641;51.018;4.474;2023-02-19T10:43:50;13.10;99.90
22950;DHT22;11641;51.018;4.474;2023-02-19T10:46:27;13.10;99.90
22950;DHT22;11641;51.018;4.474;2023-02-19T10:49:05;12.90;99.90
22950;DHT22;11641;51.018;4.474;2023-02-19T10:51:39;12.80;99.90
22950;DHT22;11641;51.018;4.474;2023-02-19T10:54:37;12.80;99.90
22950;DHT22;11641;51.018;4.474;2023-02-19T10:59:51;12.90;99.90
22950;DHT22;11641;51.018;4.474;2023-02-19T11:02:19;12.70;99.90
22950;DHT22;11641;51.018;4.474;2023-02-19T11:07:51;12.60;99.90
22950;DHT22;11641;51.018;4.474;2023-02-19T11:10:39;12.80;99.90
22950;DHT22;11641;51.018;4.474;2023-02-19T11:13:26;12.90;99.90
22950;DHT22;11641;51.018;4.474;2023-02-19T11:15:55;13.20;99.90
22950;DHT22;11641;51.018;4.474;2023-02-19T11:18:29;13.10;99.90
22950;DHT22;11641;51.018;4.474;2023-02-19T11:21:01;13.00;99.90
22950;DHT22;11641;51.018;4.474;2023-02-19T11:23:42;12.80;99.90
22950;DHT22;11641;51.018;4.474;2023-02-19T11:26:18;12.60;99.90
22950;DHT22;11641;51.018;4.474;2023-02-19T11:28:45;12.40;99.90
22950;DHT22;11641;51.018;4.474;2023-02-19T11:34:02;11.90;99.90
22950;DHT22;11641;51.018;4.474;2023-02-19T11:36:33;11.70;99.90
22950;DHT22;11641;51.018;4.474;2023-02-19T11:39:20;11.70;99.90
22950;DHT22;11641;51.018;4.474;2023-02-19T11:53:02;11.80;99.90
22950;DHT22;11641;51.018;4.474;2023-02-19T12:26:27;12.10;99.90
22950;DHT22;11641;51.018;4.474;2023-02-19T12:38:04;11.40;99.90
22950;DHT22;11641;51.018;4.474;2023-02-19T12:43:09;11.00;99.90
22950;DHT22;11641;51.018;4.474;2023-02-19T12:45:41;11.10;99.90
22950;DHT22;11641;51.018;4.474;2023-02-19T12:51:16;11.40;99.90
22950;DHT22;11641;51.018;4.474;2023-02-19T12:54:14;11.40;99.90
22950;DHT22;11641;51.018;4.474;2023-02-19T12:56:49;11.50;99.90
22950;DHT22;11641;51.018;4.474;2023-02-19T13:02:05;11.60;99.90
22950;DHT22;11641;51.018;4.474;2023-02-19T13:05:05;11.50;99.90
22950;DHT22;11641;51.018;4.474;2023-02-19T13:10:21;11.80;99.90
22950;DHT22;11641;51.018;4.474;2023-02-19T13:12:50;11.90;99.90
22950;DHT22;11641;51.018;4.474;2023-02-19T13:17:51;12.00;99.90
22950;DHT22;11641;51.018;4.474;2023-02-19T13:20:35;11.90;99.90
22950;DHT22;11641;51.018;4.474;2023-02-19T13:23:19;11.80;99.90
22950;DHT22;11641;51.018;4.474;2023-02-19T13:29:22;11.90;99.90
22950;DHT22;11641;51.018;4.474;2023-02-19T13:36:59;12.10;99.90
22950;DHT22;11641;51.018;4.474;2023-02-19T13:39:25;12.00;99.90
22950;DHT22;11641;51.018;4.474;2023-02-19T13:41:54;11.90;99.90
22950;DHT22;11641;51.018;4.474;2023-02-19T13:44:26;12.00;99.90
22950;DHT22;11641;51.018;4.474;2023-02-19T13:46:53;11.60;99.90
22950;DHT22;11641;51.018;4.474;2023-02-19T14:01:08;11.10;99.90
22950;DHT22;11641;51.018;4.474;2023-02-19T14:03:45;11.30;99.90
22950;DHT22;11641;51.018;4.474;2023-02-19T14:06:11;11.40;99.90
22950;DHT22;11641;51.018;4.474;2023-02-19T14:11:14;11.40;99.90
22950;DHT22;11641;51.018;4.474;2023-02-19T14:13:53;11.40;99.90
22950;DHT22;11641;51.018;4.474;2023-02-19T14:16:36;11.40;99.90
22950;DHT22;11641;51.018;4.474;2023-02-19T14:19:13;11.10;99.90
22950;DHT22;11641;51.018;4.474;2023-02-19T14:21:40;10.70;99.90
22950;DHT22;11641;51.018;4.474;2023-02-19T14:24:11;10.50;99.90
22950;DHT22;11641;51.018;4.474;2023-02-19T14:26:39;10.50;99.90
22950;DHT22;11641;51.018;4.474;2023-02-19T14:29:10;10.50;99.90
22950;DHT22;11641;51.018;4.474;2023-02-19T14:31:39;10.50;99.90
22950;DHT22;11641;51.018;4.474;2023-02-19T14:34:19;10.60;99.90
22950;DHT22;11641;51.018;4.474;2023-02-19T14:37:00;10.80;99.90
22950;DHT22;11641;51.018;4.474;2023-02-19T14:39:32;10.70;99.90
22950;DHT22;11641;51.018;4.474;2023-02-19T14:42:06;10.70;99.90
22950;DHT22;11641;51.018;4.474;2023-02-19T14:47:17;11.00;99.90
22950;DHT22;11641;51.018;4.474;2023-02-19T14:49:59;10.90;99.90
22950;DHT22;11641;51.018;4.474;2023-02-19T14:52:33;11.00;99.90
22950;DHT22;11641;51.018;4.474;2023-02-19T14:55:07;11.10;99.90
22950;DHT22;11641;51.018;4.474;2023-02-19T14:57:44;11.10;99.90
22950;DHT22;11641;51.018;4.474;2023-02-19T15:02:50;11.30;99.90
22950;DHT22;11641;51.018;4.474;2023-02-19T15:05:28;11.40;99.90
22950;DHT22;11641;51.018;4.474;2023-02-19T15:07:57;11.30;99.90
22950;DHT22;11641;51.018;4.474;2023-02-19T15:10:26;11.30;99.90
22950;DHT22;11641;51.018;4.474;2023-02-19T15:13:04;11.10;99.90
22950;DHT22;11641;51.018;4.474;2023-02-19T15:15:35;11.10;99.90
22950;DHT22;11641;51.018;4.474;2023-02-19T15:18:05;11.30;99.90
22950;DHT22;11641;51.018;4.474;2023-02-19T15:20:34;11.40;99.90
22950;DHT22;11641;51.018;4.474;2023-02-19T15:23:02;11.70;99.90
22950;DHT22;11641;51.018;4.474;2023-02-19T15:25:34;11.60;99.90
22950;DHT22;11641;51.018;4.474;2023-02-19T15:30:45;12.20;99.90
22950;DHT22;11641;51.018;4.474;2023-02-19T15:33:16;12.40;99.90
22950;DHT22;11641;51.018;4.474;2023-02-19T15:35:50;12.10;99.90
22950;DHT22;11641;51.018;4.474;2023-02-19T15:38:17;12.00;99.90
22950;DHT22;11641;51.018;4.474;2023-02-19T15:40:47;11.80;99.90
22950;DHT22;11641;51.018;4.474;2023-02-19T15:43:40;11.50;99.90
22950;DHT22;11641;51.018;4.474;2023-02-19T15:46:18;11.60;99.90
22950;DHT22;11641;51.018;4.474;2023-02-19T15:48:55;11.40;99.90
22950;DHT22;11641;51.018;4.474;2023-02-19T15:51:36;11.40;99.90
22950;DHT22;11641;51.018;4.474;2023-02-19T15:54:17;11.30;99.90
22950;DHT22;11641;51.018;4.474;2023-02-19T15:56:48;11.00;99.90
22950;DHT22;11641;51.018;4.474;2023-02-19T16:02:13;10.90;99.90
22950;DHT22;11641;51.018;4.474;2023-02-19T16:04:43;11.10;99.90
22950;DHT22;11641;51.018;4.474;2023-02-19T16:07:27;10.90;99.90
22950;DHT22;11641;51.018;4.474;2023-02-19T16:10:18;10.90;99.90
22950;DHT22;11641;51.018;4.474;2023-02-19T16:12:59;10.90;99.90
22950;DHT22;11641;51.018;4.474;2023-02-19T16:15:27;10.70;99.90
22950;DHT22;11641;51.018;4.474;2023-02-19T16:17:54;10.50;99.90
22950;DHT22;11641;51.018;4.474;2023-02-19T16:20:23;10.40;99.90
22950;DHT22;11641;51.018;4.474;2023-02-19T16:22:54;10.50;99.90
22950;DHT22;11641;51.018;4.474;2023-02-19T16:28:12;10.40;99.90
22950;DHT22;11641;51.018;4.474;2023-02-19T16:30:38;10.30;99.90
22950;DHT22;11641;51.018;4.474;2023-02-19T16:39:11;10.40;99.90
22950;DHT22;11641;51.018;4.474;2023-02-19T16:47:13;10.60;99.90
22950;DHT22;11641;51.018;4.474;2023-02-19T16:49:39;10.60;99.90
22950;DHT22;11641;51.018;4.474;2023-02-19T16:52:08;10.40;99.90
22950;DHT22;11641;51.018;4.474;2023-02-19T16:54:34;10.40;99.90
22950;DHT22;11641;51.018;4.474;2023-02-19T16:57:00;10.20;99.90
22950;DHT22;11641;51.018;4.474;2023-02-19T16:59:25;10.40;99.90
22950;DHT22;11641;51.018;4.474;2023-02-19T17:01:51;10.40;99.90
22950;DHT22;11641;51.018;4.474;2023-02-19T17:04:17;10.50;99.90
22950;DHT22;11641;51.018;4.474;2023-02-19T17:06:43;10.40;99.90
22950;DHT22;11641;51.018;4.474;2023-02-19T17:09:10;10.30;99.90
22950;DHT22;11641;51.018;4.474;2023-02-19T17:11:35;10.20;99.90
22950;DHT22;11641;51.018;4.474;2023-02-19T17:14:04;10.20;99.90
22950;DHT22;11641;51.018;4.474;2023-02-19T17:16:31;10.20;99.90
22950;DHT22;11641;51.018;4.474;2023-02-19T17:19:11;10.20;99.90
22950;DHT22;11641;51.018;4.474;2023-02-19T17:21:37;10.20;99.90
22950;DHT22;11641;51.018;4.474;2023-02-19T17:24:05;10.20;99.90
22950;DHT22;11641;51.018;4.474;2023-02-19T17:26:31;10.20;99.90
22950;DHT22;11641;51.018;4.474;2023-02-19T17:29:03;10.10;99.90
22950;DHT22;11641;51.018;4.474;2023-02-19T17:31:30;10.10;99.90
22950;DHT22;11641;51.018;4.474;2023-02-19T17:33:56;10.20;99.90
22950;DHT22;11641;51.018;4.474;2023-02-19T17:36:28;10.30;99.90
22950;DHT22;11641;51.018;4.474;2023-02-19T17:39:00;10.30;99.90
22950;DHT22;11641;51.018;4.474;2023-02-19T17:41:27;10.30;99.90
22950;DHT22;11641;51.018;4.474;2023-02-19T17:43:53;10.30;99.90
22950;DHT22;11641;51.018;4.474;2023-02-19T17:46:24;10.40;99.90
22950;DHT22;11641;51.018;4.474;2023-02-19T17:48:52;10.20;99.90
22950;DHT22;11641;51.018;4.474;2023-02-19T17:51:18;10.20;99.90
22950;DHT22;11641;51.018;4.474;2023-02-19T17:53:43;10.20;99.90
22950;DHT22;11641;51.018;4.474;2023-02-19T17:56:16;10.10;99.90
22950;DHT22;11641;51.018;4.474;2023-02-19T17:58:42;10.00;99.90
22950;DHT22;11641;51.018;4.474;2023-02-19T18:01:09;10.00;99.90
22950;DHT22;11641;51.018;4.474;2023-02-19T18:03:35;10.10;99.90
22950;DHT22;11641;51.018;4.474;2023-02-19T18:06:00;10.20;99.90
22950;DHT22;11641;51.018;4.474;2023-02-19T18:08:26;10.30;99.90
22950;DHT22;11641;51.018;4.474;2023-02-19T18:10:52;10.10;99.90
22950;DHT22;11641;51.018;4.474;2023-02-19T18:13:20;10.10;99.90
22950;DHT22;11641;51.018;4.474;2023-02-19T18:15:46;10.10;99.90
22950;DHT22;11641;51.018;4.474;2023-02-19T18:18:12;10.00;99.90
22950;DHT22;11641;51.018;4.474;2023-02-19T18:20:37;10.00;99.90